Time;durP1;ratioP1;P1;durP2;ratioP2;P2;SDS_P1;SDS_P2;PMS_P1;PMS_P2;Temp;Humidity;BMP_temperature;BMP_pressure;BME280_temperature;BME280_humidity;BME280_pressure;Samples;Min_cycle;Max_cycle;Signal;HPM_P1;HPM_P2
2023/10/31 00:00:04;;;;;;;1.85;0.75;;;;;;;;;;1031448;28;20161;-24
2023/10/31 00:00:34;;;;;;;16.75;5.65;;;;;;;;;;1031005;28;20433;-23
2023/10/31 00:01:05;;;;;;;7.97;3.25;;;;;;;;;;1031781;28;20506;-21
2023/10/31 00:01:35;;;;;;;3.70;1.88;;;;;;;;;;1030857;28;20231;-22
2023/10/31 00:02:06;;;;;;;3.78;2.35;;;;;;;;;;1031199;28;20033;-22
2023/10/31 00:02:36;;;;;;;2.10;1.88;;;;;;;;;;1031177;28;20065;-23
2023/10/31 00:03:07;;;;;;;11.10;2.95;;;;;;;;;;1031311;28;20061;-21
2023/10/31 00:03:40;;;;;;;15.48;4.18;;;;;;;;;;1031239;28;20647;-22
2023/10/31 00:04:10;;;;;;;2.95;1.85;;;;;;;;;;1031384;28;20022;-22
2023/10/31 00:04:41;;;;;;;2.85;2.63;;;;;;;;;;1031273;28;20029;-23
2023/10/31 00:05:12;;;;;;;2.15;1.77;;;;;;;;;;1031229;28;20482;-24
2023/10/31 00:05:43;;;;;;;4.82;3.00;;;;;;;;;;1031337;28;20022;-21
2023/10/31 00:06:13;;;;;;;2.53;2.28;;;;;;;;;;1031253;28;20038;-24
2023/10/31 00:06:44;;;;;;;3.78;2.78;;;;;;;;;;1031222;28;20577;-23
2023/10/31 00:07:14;;;;;;;5.85;2.35;;;;;;;;;;1030994;28;20034;-23
2023/10/31 00:07:45;;;;;;;3.58;2.47;;;;;;;;;;1030616;28;20532;-23
2023/10/31 00:08:15;;;;;;;3.67;3.10;;;;;;;;;;1031159;28;20037;-23
2023/10/31 00:08:46;;;;;;;11.27;4.32;;;;;;;;;;1031498;28;20033;-25
2023/10/31 00:09:16;;;;;;;7.05;3.50;;;;;;;;;;1031259;28;20438;-23
2023/10/31 00:09:47;;;;;;;4.03;2.47;;;;;;;;;;1031135;28;20026;-23
2023/10/31 00:10:17;;;;;;;9.50;3.67;;;;;;;;;;1031289;28;20030;-23
2023/10/31 00:10:48;;;;;;;2.67;1.75;;;;;;;;;;1031475;28;20061;-24
2023/10/31 00:11:18;;;;;;;11.90;2.75;;;;;;;;;;1031183;28;20065;-22
2023/10/31 00:11:49;;;;;;;7.93;5.90;;;;;;;;;;1031268;28;20031;-23
2023/10/31 00:12:19;;;;;;;4.07;2.10;;;;;;;;;;1031940;28;20038;-23
2023/10/31 00:12:50;;;;;;;1.20;0.80;;;;;;;;;;1031746;28;20502;-24
2023/10/31 00:13:20;;;;;;;16.17;2.45;;;;;;;;;;1030829;28;20030;-22
2023/10/31 00:13:51;;;;;;;7.38;3.58;;;;;;;;;;1031229;28;20026;-24
2023/10/31 00:14:21;;;;;;;5.53;3.42;;;;;;;;;;1031337;28;20022;-23
2023/10/31 00:14:52;;;;;;;4.18;2.17;;;;;;;;;;1031408;28;20478;-21
2023/10/31 00:15:24;;;;;;;4.28;2.40;;;;;;;;;;1030992;28;20022;-23
2023/10/31 00:15:55;;;;;;;3.92;3.55;;;;;;;;;;1031246;28;20026;-23
2023/10/31 00:16:25;;;;;;;8.73;3.42;;;;;;;;;;1031287;28;20029;-21
2023/10/31 00:16:56;;;;;;;19.70;3.72;;;;;;;;;;1031259;28;20022;-24
2023/10/31 00:17:26;;;;;;;18.85;3.28;;;;;;;;;;1030852;28;20033;-24
2023/10/31 00:17:57;;;;;;;4.90;3.63;;;;;;;;;;1031334;28;20081;-25
2023/10/31 00:18:27;;;;;;;4.03;3.40;;;;;;;;;;1031194;28;20125;-24
2023/10/31 00:18:58;;;;;;;0.73;0.73;;;;;;;;;;1031425;28;20026;-22
2023/10/31 00:19:28;;;;;;;3.40;3.15;;;;;;;;;;1030923;28;20501;-22
2023/10/31 00:20:00;;;;;;;6.25;5.07;;;;;;;;;;1031148;28;20022;-22
2023/10/31 00:20:30;;;;;;;6.93;5.13;;;;;;;;;;1031067;28;20031;-24
2023/10/31 00:21:01;;;;;;;4.70;4.25;;;;;;;;;;1031322;28;20109;-22
2023/10/31 00:21:31;;;;;;;10.50;7.55;;;;;;;;;;1031191;28;20367;-23
2023/10/31 00:22:02;;;;;;;1.65;1.38;;;;;;;;;;1031292;28;20018;-22
2023/10/31 00:22:32;;;;;;;7.05;2.45;;;;;;;;;;1030090;28;20022;-23
2023/10/31 00:23:03;;;;;;;2.75;2.25;;;;;;;;;;1025421;28;20072;-22
2023/10/31 00:23:33;;;;;;;1.38;1.27;;;;;;;;;;1027515;28;20026;-22
2023/10/31 00:24:04;;;;;;;8.55;2.83;;;;;;;;;;1029492;28;20094;-24
2023/10/31 00:24:34;;;;;;;5.93;3.40;;;;;;;;;;1028822;28;20030;-24
2023/10/31 00:25:06;;;;;;;9.77;3.38;;;;;;;;;;1030910;28;20025;-23
2023/10/31 00:25:36;;;;;;;4.20;3.80;;;;;;;;;;1030007;28;20064;-24
2023/10/31 00:26:07;;;;;;;1.23;1.08;;;;;;;;;;1031217;28;20026;-22
2023/10/31 00:26:37;;;;;;;2.25;2.05;;;;;;;;;;1030864;28;20022;-23
2023/10/31 00:27:08;;;;;;;2.67;2.17;;;;;;;;;;1030992;28;20066;-23
2023/10/31 00:27:38;;;;;;;11.98;6.22;;;;;;;;;;1032010;28;20037;-23
2023/10/31 00:28:09;;;;;;;5.07;4.30;;;;;;;;;;1031199;28;20887;-23
2023/10/31 00:28:39;;;;;;;2.25;2.03;;;;;;;;;;1031060;28;20481;-24
2023/10/31 00:29:10;;;;;;;4.95;4.53;;;;;;;;;;1030816;28;20026;-25
2023/10/31 00:29:40;;;;;;;4.45;4.03;;;;;;;;;;1030950;28;20117;-24
2023/10/31 00:30:11;;;;;;;1.80;1.63;;;;;;;;;;1030191;28;20031;-22
2023/10/31 00:30:41;;;;;;;3.17;2.95;;;;;;;;;;1031547;28;20075;-23
2023/10/31 00:31:13;;;;;;;1.98;1.75;;;;;;;;;;1031224;28;20057;-25
2023/10/31 00:31:44;;;;;;;22.60;4.43;;;;;;;;;;1030710;28;20026;-21
2023/10/31 00:32:14;;;;;;;1.65;1.55;;;;;;;;;;1031217;28;20130;-21
2023/10/31 00:32:45;;;;;;;0.52;0.52;;;;;;;;;;1030971;28;20057;-23
2023/10/31 00:33:15;;;;;;;2.20;2.05;;;;;;;;;;1030983;28;20570;-23
2023/10/31 00:33:45;;;;;;;1.65;1.55;;;;;;;;;;1030923;28;20018;-23
2023/10/31 00:34:16;;;;;;;5.22;3.72;;;;;;;;;;1030985;28;20030;-23
2023/10/31 00:34:47;;;;;;;2.75;2.42;;;;;;;;;;1031317;28;20504;-23
2023/10/31 00:35:17;;;;;;;5.00;3.13;;;;;;;;;;1030341;28;20721;-21
2023/10/31 00:35:48;;;;;;;7.03;1.70;;;;;;;;;;1030972;28;20061;-21
2023/10/31 00:36:18;;;;;;;2.35;2.20;;;;;;;;;;1030422;28;20034;-23
2023/10/31 00:36:49;;;;;;;4.15;2.55;;;;;;;;;;1031500;28;20105;-23
2023/10/31 00:37:20;;;;;;;0.93;0.88;;;;;;;;;;1030559;28;20030;-24
2023/10/31 00:37:50;;;;;;;6.05;4.13;;;;;;;;;;1031032;28;20113;-23
2023/10/31 00:38:21;;;;;;;7.13;5.53;;;;;;;;;;1031137;28;20038;-25
2023/10/31 00:38:51;;;;;;;1.63;1.55;;;;;;;;;;1031120;28;20054;-23
2023/10/31 00:39:22;;;;;;;2.85;2.22;;;;;;;;;;1030794;28;20380;-25
2023/10/31 00:39:52;;;;;;;3.42;2.22;;;;;;;;;;1031168;28;20022;-23
2023/10/31 00:40:23;;;;;;;1.95;1.85;;;;;;;;;;1030935;28;20030;-24
2023/10/31 00:40:53;;;;;;;15.07;4.80;;;;;;;;;;1031183;28;20113;-22
2023/10/31 00:41:24;;;;;;;1.15;1.05;;;;;;;;;;1031067;28;20033;-22
2023/10/31 00:41:54;;;;;;;2.50;2.00;;;;;;;;;;1030933;28;20064;-22
2023/10/31 00:42:25;;;;;;;2.30;2.00;;;;;;;;;;1030606;28;20442;-21
2023/10/31 00:42:58;;;;;;;3.58;3.30;;;;;;;;;;1031364;28;20080;-24
2023/10/31 00:43:28;;;;;;;2.30;2.13;;;;;;;;;;1030858;28;20040;-23
2023/10/31 00:43:59;;;;;;;2.17;1.60;;;;;;;;;;1031452;28;20033;-25
2023/10/31 00:44:29;;;;;;;4.95;4.55;;;;;;;;;;1030982;28;20034;-23
2023/10/31 00:45:00;;;;;;;4.05;3.67;;;;;;;;;;1031202;28;20077;-23
2023/10/31 00:45:30;;;;;;;17.88;2.60;;;;;;;;;;1030965;28;20048;-23
2023/10/31 00:46:02;;;;;;;9.32;4.85;;;;;;;;;;1031261;28;20477;-23
2023/10/31 00:46:33;;;;;;;2.50;2.30;;;;;;;;;;1029970;28;20081;-24
2023/10/31 00:47:05;;;;;;;3.47;3.20;;;;;;;;;;1030321;28;20022;-24
2023/10/31 00:47:36;;;;;;;2.42;2.10;;;;;;;;;;1030646;28;20033;-24
2023/10/31 00:48:06;;;;;;;39.50;5.93;;;;;;;;;;1031051;28;20029;-25
2023/10/31 00:48:37;;;;;;;3.17;2.42;;;;;;;;;;1031311;28;20034;-25
2023/10/31 00:49:07;;;;;;;2.72;2.53;;;;;;;;;;1030702;28;20030;-23
2023/10/31 00:49:38;;;;;;;2.75;2.22;;;;;;;;;;1029923;28;20065;-22
2023/10/31 00:50:09;;;;;;;6.82;1.45;;;;;;;;;;1031125;28;20023;-25
2023/10/31 00:50:39;;;;;;;2.03;1.90;;;;;;;;;;1031138;28;20034;-25
2023/10/31 00:51:10;;;;;;;1.98;1.20;;;;;;;;;;1031102;28;20034;-23
2023/10/31 00:51:40;;;;;;;4.78;2.17;;;;;;;;;;1030480;28;20030;-23
2023/10/31 00:52:11;;;;;;;2.75;2.55;;;;;;;;;;1030725;28;20018;-24
2023/10/31 00:52:41;;;;;;;6.00;3.95;;;;;;;;;;1030576;28;20482;-21
2023/10/31 00:53:14;;;;;;;3.08;1.63;;;;;;;;;;1031505;28;20041;-23
2023/10/31 00:53:45;;;;;;;44.03;3.67;;;;;;;;;;1030543;28;20018;-25
2023/10/31 00:54:16;;;;;;;0.57;0.57;;;;;;;;;;1030734;28;20073;-24
2023/10/31 00:54:46;;;;;;;4.50;3.35;;;;;;;;;;1031517;28;20036;-23
2023/10/31 00:55:17;;;;;;;1.10;1.08;;;;;;;;;;1030785;28;20041;-22
2023/10/31 00:55:47;;;;;;;1.05;0.80;;;;;;;;;;1030658;28;20030;-24
2023/10/31 00:56:18;;;;;;;2.72;2.45;;;;;;;;;;1030717;28;20038;-21
2023/10/31 00:56:48;;;;;;;1.90;1.23;;;;;;;;;;1030560;28;20439;-23
2023/10/31 00:57:19;;;;;;;1.67;1.58;;;;;;;;;;1031419;28;20492;-24
2023/10/31 00:57:49;;;;;;;3.58;3.25;;;;;;;;;;1030808;28;20022;-23
2023/10/31 00:58:20;;;;;;;1.95;1.17;;;;;;;;;;1030757;28;20033;-25
2023/10/31 00:58:51;;;;;;;1.52;1.42;;;;;;;;;;1029617;28;20385;-22
2023/10/31 00:59:21;;;;;;;1.67;1.58;;;;;;;;;;1030242;28;20062;-23
2023/10/31 00:59:52;;;;;;;1.60;1.50;;;;;;;;;;1030262;28;20116;-22
2023/10/31 01:00:22;;;;;;;1.88;1.77;;;;;;;;;;1030266;28;20041;-23
2023/10/31 01:00:53;;;;;;;3.92;2.92;;;;;;;;;;1029170;28;20026;-23
2023/10/31 01:01:23;;;;;;;1.25;1.20;;;;;;;;;;1030103;28;20034;-22
2023/10/31 01:01:54;;;;;;;3.92;3.63;;;;;;;;;;1030111;28;20076;-22
2023/10/31 01:02:24;;;;;;;1.90;1.80;;;;;;;;;;1029639;28;20121;-22
2023/10/31 01:02:55;;;;;;;3.90;3.10;;;;;;;;;;1030548;28;20022;-24
2023/10/31 01:03:26;;;;;;;0.65;0.65;;;;;;;;;;1030232;28;20136;-22
2023/10/31 01:03:56;;;;;;;1.70;1.58;;;;;;;;;;1030615;28;20901;-21
2023/10/31 01:04:27;;;;;;;5.65;3.65;;;;;;;;;;1030639;28;20037;-24
2023/10/31 01:04:57;;;;;;;0.40;0.40;;;;;;;;;;1031002;28;20402;-21
2023/10/31 01:05:28;;;;;;;2.05;1.92;;;;;;;;;;1031296;28;20081;-24
2023/10/31 01:05:58;;;;;;;4.38;4.05;;;;;;;;;;1031849;28;20029;-23
2023/10/31 01:06:29;;;;;;;2.92;2.63;;;;;;;;;;1031299;28;20065;-23
2023/10/31 01:07:00;;;;;;;2.38;2.17;;;;;;;;;;1032109;28;20135;-23
2023/10/31 01:07:30;;;;;;;5.85;3.45;;;;;;;;;;1031272;28;20054;-22
2023/10/31 01:08:01;;;;;;;2.92;1.40;;;;;;;;;;1032056;28;20018;-22
2023/10/31 01:08:32;;;;;;;1.95;1.67;;;;;;;;;;1031139;28;20075;-22
2023/10/31 01:09:03;;;;;;;1.08;1.00;;;;;;;;;;1031673;28;20504;-22
2023/10/31 01:09:33;;;;;;;4.07;3.22;;;;;;;;;;1031343;28;20116;-23
2023/10/31 01:10:04;;;;;;;1.75;1.65;;;;;;;;;;1031551;28;20022;-24
2023/10/31 01:10:34;;;;;;;1.67;1.30;;;;;;;;;;1031289;28;20026;-23
2023/10/31 01:11:06;;;;;;;2.13;1.90;;;;;;;;;;1030815;28;20553;-22
2023/10/31 01:11:37;;;;;;;1.77;1.67;;;;;;;;;;1033861;28;20029;-20
2023/10/31 01:12:07;;;;;;;0.88;0.88;;;;;;;;;;1033692;28;20125;-21
2023/10/31 01:12:38;;;;;;;2.75;1.67;;;;;;;;;;1033389;28;20912;-20
2023/10/31 01:13:08;;;;;;;4.50;4.15;;;;;;;;;;1033844;28;20081;-23
2023/10/31 01:13:39;;;;;;;3.22;2.92;;;;;;;;;;1029924;28;20065;-19
2023/10/31 01:14:09;;;;;;;1.00;0.55;;;;;;;;;;1031179;28;20173;-21
2023/10/31 01:14:40;;;;;;;1.83;1.55;;;;;;;;;;1031785;28;20033;-20
2023/10/31 01:15:10;;;;;;;1.98;1.23;;;;;;;;;;1031861;28;20053;-20
2023/10/31 01:15:41;;;;;;;1.85;1.52;;;;;;;;;;1031207;28;20022;-19
2023/10/31 01:16:12;;;;;;;4.75;2.42;;;;;;;;;;1031731;28;20030;-23
2023/10/31 01:16:42;;;;;;;19.45;4.47;;;;;;;;;;1031811;28;20030;-22
2023/10/31 01:17:13;;;;;;;2.08;1.98;;;;;;;;;;1031630;28;20449;-22
2023/10/31 01:17:43;;;;;;;2.80;2.33;;;;;;;;;;1031602;28;20054;-22
2023/10/31 01:18:14;;;;;;;0.95;0.93;;;;;;;;;;1031088;28;20434;-22
2023/10/31 01:18:45;;;;;;;1.08;0.80;;;;;;;;;;1031459;28;20037;-22
2023/10/31 01:19:15;;;;;;;5.03;4.47;;;;;;;;;;1031152;28;20030;-22
2023/10/31 01:19:46;;;;;;;0.85;0.85;;;;;;;;;;1030500;28;20478;-20
2023/10/31 01:20:16;;;;;;;1.48;1.42;;;;;;;;;;1031484;28;20100;-22
2023/10/31 01:20:47;;;;;;;6.80;2.95;;;;;;;;;;1031880;28;20027;-23
2023/10/31 01:21:18;;;;;;;1.95;1.33;;;;;;;;;;1031693;28;20033;-22
2023/10/31 01:21:49;;;;;;;5.28;4.75;;;;;;;;;;1030878;28;20038;-22
2023/10/31 01:22:19;;;;;;;3.13;2.50;;;;;;;;;;1031923;28;20073;-24
2023/10/31 01:22:50;;;;;;;3.38;2.40;;;;;;;;;;1032038;28;20030;-22
2023/10/31 01:23:21;;;;;;;1.77;1.67;;;;;;;;;;1030769;28;20030;-22
2023/10/31 01:23:51;;;;;;;6.82;3.95;;;;;;;;;;1030073;28;20591;-22
2023/10/31 01:24:23;;;;;;;3.30;3.10;;;;;;;;;;1030205;28;20381;-22
2023/10/31 01:24:54;;;;;;;1.77;1.67;;;;;;;;;;1031012;28;20041;-23
2023/10/31 01:25:25;;;;;;;2.28;2.17;;;;;;;;;;1030788;28;20033;-23
2023/10/31 01:25:56;;;;;;;2.00;1.80;;;;;;;;;;1029709;28;20079;-20
2023/10/31 01:26:27;;;;;;;4.50;2.65;;;;;;;;;;1027583;28;20501;-23
2023/10/31 01:26:58;;;;;;;0.80;0.80;;;;;;;;;;1033276;28;20081;-22
2023/10/31 01:27:28;;;;;;;2.50;1.70;;;;;;;;;;1033345;28;20028;-22
2023/10/31 01:27:59;;;;;;;0.45;0.45;;;;;;;;;;1033670;28;20030;-23
2023/10/31 01:28:29;;;;;;;1.65;1.55;;;;;;;;;;1031754;28;20030;-21
2023/10/31 01:29:02;;;;;;;0.73;0.73;;;;;;;;;;1032046;28;20030;-22
2023/10/31 01:29:33;;;;;;;1.45;1.25;;;;;;;;;;1033020;28;20105;-21
2023/10/31 01:30:04;;;;;;;4.57;2.28;;;;;;;;;;1027010;28;20027;-22
2023/10/31 01:30:35;;;;;;;2.35;2.22;;;;;;;;;;1027135;28;20018;-20
2023/10/31 01:31:09;;;;;;;2.60;1.50;;;;;;;;;;1028744;28;20041;-24
2023/10/31 01:31:45;;;;;;;1.50;1.45;;;;;;;;;;1026457;28;20022;-21
2023/10/31 01:32:18;;;;;;;3.63;2.78;;;;;;;;;;1026298;28;20402;-21
2023/10/31 01:32:48;;;;;;;2.58;2.38;;;;;;;;;;1028327;28;20124;-23
2023/10/31 01:33:20;;;;;;;0.93;0.85;;;;;;;;;;1028092;28;20035;-22
2023/10/31 01:33:54;;;;;;;1.13;1.13;;;;;;;;;;1027307;28;20058;-23
2023/10/31 01:34:28;;;;;;;4.30;3.95;;;;;;;;;;1030766;28;20075;-23
2023/10/31 01:35:01;;;;;;;40.28;7.05;;;;;;;;;;1025581;28;20500;-23
2023/10/31 01:35:36;;;;;;;1.95;1.08;;;;;;;;;;1024876;28;20023;-23
2023/10/31 01:36:12;;;;;;;4.90;4.50;;;;;;;;;;1030379;28;20045;-24
2023/10/31 01:36:43;;;;;;;4.40;2.58;;;;;;;;;;1028046;28;20601;-24
2023/10/31 01:37:23;;;;;;;7.78;3.42;;;;;;;;;;1032252;28;20030;-24
2023/10/31 01:38:00;;;;;;;5.05;1.95;;;;;;;;;;1031307;28;20879;-23
2023/10/31 01:38:31;;;;;;;17.67;4.05;;;;;;;;;;1030143;28;20125;-22
2023/10/31 01:39:02;;;;;;;1.55;1.38;;;;;;;;;;1031436;28;20026;-21
2023/10/31 01:39:32;;;;;;;2.55;1.65;;;;;;;;;;1031430;28;20485;-21
2023/10/31 01:40:03;;;;;;;2.67;2.45;;;;;;;;;;1031719;28;20030;-24
2023/10/31 01:40:34;;;;;;;0.50;0.50;;;;;;;;;;1029365;28;20034;-24
2023/10/31 01:41:06;;;;;;;3.50;2.72;;;;;;;;;;1030680;28;20496;-22
2023/10/31 01:41:37;;;;;;;1.13;1.02;;;;;;;;;;1031411;28;20417;-22
2023/10/31 01:42:08;;;;;;;0.10;0.10;;;;;;;;;;1030860;28;20124;-21
2023/10/31 01:42:38;;;;;;;2.05;1.85;;;;;;;;;;1030458;28;20045;-22
2023/10/31 01:43:09;;;;;;;0.88;0.88;;;;;;;;;;1029218;28;20439;-25
2023/10/31 01:43:40;;;;;;;0.68;0.68;;;;;;;;;;1029894;28;20118;-23
2023/10/31 01:44:10;;;;;;;1.23;1.15;;;;;;;;;;1036054;28;20021;-22
2023/10/31 01:44:41;;;;;;;0.47;0.47;;;;;;;;;;1031071;28;20026;-23
2023/10/31 01:45:12;;;;;;;2.38;2.08;;;;;;;;;;1032216;28;20033;-22
2023/10/31 01:45:44;;;;;;;0.73;0.73;;;;;;;;;;1025954;28;20538;-24
2023/10/31 01:46:15;;;;;;;8.77;2.40;;;;;;;;;;1027090;28;20077;-24
2023/10/31 01:46:47;;;;;;;2.90;2.70;;;;;;;;;;1031114;28;20398;-22
2023/10/31 01:47:17;;;;;;;0.98;0.98;;;;;;;;;;1030641;28;20034;-21
2023/10/31 01:47:49;;;;;;;0.52;0.52;;;;;;;;;;1030636;28;20022;-20
2023/10/31 01:48:20;;;;;;;3.50;3.10;;;;;;;;;;1031331;28;20022;-23
2023/10/31 01:48:52;;;;;;;2.03;1.85;;;;;;;;;;1030255;28;20402;-24
2023/10/31 01:49:23;;;;;;;15.70;2.40;;;;;;;;;;1028745;28;20045;-22
2023/10/31 01:49:54;;;;;;;2.60;2.35;;;;;;;;;;1029299;28;20037;-24
2023/10/31 01:50:25;;;;;;;1.00;0.90;;;;;;;;;;1030797;28;20025;-24
2023/10/31 01:51:00;;;;;;;0.45;0.45;;;;;;;;;;1026319;28;20029;-22
2023/10/31 01:51:30;;;;;;;1.50;1.40;;;;;;;;;;1029064;28;20586;-23
2023/10/31 01:52:07;;;;;;;1.40;1.30;;;;;;;;;;1029780;28;20088;-24
2023/10/31 01:52:39;;;;;;;7.00;1.40;;;;;;;;;;1030386;28;20061;-24
2023/10/31 01:53:09;;;;;;;1.80;1.17;;;;;;;;;;1034422;28;20021;-25
2023/10/31 01:53:40;;;;;;;8.07;1.92;;;;;;;;;;1028877;28;20102;-25
2023/10/31 01:54:12;;;;;;;6.47;4.28;;;;;;;;;;1027320;28;20417;-22
2023/10/31 01:54:47;;;;;;;3.95;3.50;;;;;;;;;;1029105;28;20112;-24
2023/10/31 01:55:18;;;;;;;2.45;2.25;;;;;;;;;;1027354;28;20026;-22
2023/10/31 01:55:49;;;;;;;5.25;4.15;;;;;;;;;;1030640;28;20560;-23
2023/10/31 01:56:20;;;;;;;2.15;2.00;;;;;;;;;;1031517;28;20057;-23
2023/10/31 01:56:56;;;;;;;17.20;2.78;;;;;;;;;;1032754;28;20053;-23
2023/10/31 01:57:29;;;;;;;3.03;2.83;;;;;;;;;;1030682;28;20041;-24
2023/10/31 01:58:01;;;;;;;2.25;2.05;;;;;;;;;;1027709;28;20430;-21
2023/10/31 01:58:35;;;;;;;1.15;1.15;;;;;;;;;;1029275;28;20117;-23
2023/10/31 01:59:06;;;;;;;6.80;3.65;;;;;;;;;;1029373;28;20034;-22
2023/10/31 01:59:37;;;;;;;2.50;2.40;;;;;;;;;;1029391;28;20030;-22
2023/10/31 02:00:08;;;;;;;9.18;1.65;;;;;;;;;;1029491;28;20031;-23
2023/10/31 02:00:42;;;;;;;3.67;2.88;;;;;;;;;;1030532;28;20030;-24
2023/10/31 02:01:13;;;;;;;2.03;1.92;;;;;;;;;;1032850;28;20030;-24
2023/10/31 02:01:44;;;;;;;4.32;4.00;;;;;;;;;;1029597;28;20145;-23
2023/10/31 02:02:15;;;;;;;9.75;4.60;;;;;;;;;;1029990;28;20022;-22
2023/10/31 02:02:47;;;;;;;4.97;4.60;;;;;;;;;;1025034;28;20022;-23
2023/10/31 02:03:18;;;;;;;2.63;1.52;;;;;;;;;;1025789;28;20066;-23
2023/10/31 02:03:49;;;;;;;10.57;1.67;;;;;;;;;;1027582;28;20852;-23
2023/10/31 02:04:19;;;;;;;2.97;2.67;;;;;;;;;;1028637;28;20027;-24
2023/10/31 02:04:51;;;;;;;1.80;1.60;;;;;;;;;;1025600;28;20046;-24
2023/10/31 02:05:21;;;;;;;3.90;2.00;;;;;;;;;;1027520;28;20570;-24
2023/10/31 02:05:52;;;;;;;6.28;3.13;;;;;;;;;;1031805;28;20085;-22
2023/10/31 02:06:23;;;;;;;3.67;3.22;;;;;;;;;;1034276;28;20052;-23
2023/10/31 02:06:53;;;;;;;3.00;2.38;;;;;;;;;;1037813;28;20646;-23
2023/10/31 02:07:24;;;;;;;3.15;1.65;;;;;;;;;;1037679;28;20503;-25
2023/10/31 02:07:55;;;;;;;0.73;0.73;;;;;;;;;;1033272;28;20025;-23
2023/10/31 02:08:26;;;;;;;4.18;2.88;;;;;;;;;;1028844;28;20554;-23
2023/10/31 02:08:56;;;;;;;0.93;0.93;;;;;;;;;;1026687;28;20037;-23
2023/10/31 02:09:29;;;;;;;1.20;1.10;;;;;;;;;;1026028;28;20027;-22
2023/10/31 02:09:59;;;;;;;3.70;1.77;;;;;;;;;;1026330;28;20137;-23
2023/10/31 02:10:30;;;;;;;2.35;2.15;;;;;;;;;;1033399;28;21061;-22
2023/10/31 02:11:05;;;;;;;8.82;1.33;;;;;;;;;;1038777;28;20417;-24
2023/10/31 02:11:38;;;;;;;2.05;1.90;;;;;;;;;;1033810;28;20029;-24
2023/10/31 02:12:08;;;;;;;1.42;0.38;;;;;;;;;;1029177;28;20520;-25
2023/10/31 02:12:40;;;;;;;2.25;1.38;;;;;;;;;;1028151;28;20030;-22
2023/10/31 02:13:12;;;;;;;0.40;0.40;;;;;;;;;;1025562;28;20407;-22
2023/10/31 02:13:43;;;;;;;2.42;0.43;;;;;;;;;;1024067;28;20054;-24
2023/10/31 02:14:14;;;;;;;1.27;1.17;;;;;;;;;;1029039;28;20482;-22
2023/10/31 02:14:44;;;;;;;1.17;1.08;;;;;;;;;;1026673;28;20069;-22
2023/10/31 02:15:15;;;;;;;4.15;3.33;;;;;;;;;;1030249;28;20022;-21
2023/10/31 02:15:46;;;;;;;1.98;1.58;;;;;;;;;;1033169;28;20211;-21
2023/10/31 02:16:16;;;;;;;3.58;2.47;;;;;;;;;;1028471;28;20026;-23
2023/10/31 02:16:47;;;;;;;4.97;3.50;;;;;;;;;;1029310;28;20469;-22
2023/10/31 02:17:18;;;;;;;2.45;2.25;;;;;;;;;;1029274;28;20496;-23
2023/10/31 02:17:48;;;;;;;1.00;0.85;;;;;;;;;;1029523;28;20093;-20
2023/10/31 02:18:19;;;;;;;3.92;2.45;;;;;;;;;;1028806;28;20345;-20
2023/10/31 02:18:50;;;;;;;3.15;2.92;;;;;;;;;;1029825;28;20084;-23
2023/10/31 02:19:21;;;;;;;1.35;1.25;;;;;;;;;;1024519;28;20097;-22
2023/10/31 02:19:52;;;;;;;1.83;1.73;;;;;;;;;;1026241;28;20446;-25
2023/10/31 02:20:25;;;;;;;2.17;1.48;;;;;;;;;;1028795;28;20045;-21
2023/10/31 02:20:56;;;;;;;2.60;1.63;;;;;;;;;;1030690;28;20061;-22
2023/10/31 02:21:27;;;;;;;1.67;1.58;;;;;;;;;;1029293;28;20022;-22
2023/10/31 02:22:01;;;;;;;2.63;1.80;;;;;;;;;;1029675;28;20061;-24
2023/10/31 02:22:34;;;;;;;0.32;0.32;;;;;;;;;;1027963;28;20497;-22
2023/10/31 02:23:05;;;;;;;2.25;2.08;;;;;;;;;;1025029;28;20580;-24
2023/10/31 02:23:36;;;;;;;1.40;0.60;;;;;;;;;;1026042;28;20691;-23
2023/10/31 02:24:08;;;;;;;4.10;3.03;;;;;;;;;;1025328;28;20027;-23
2023/10/31 02:24:38;;;;;;;6.93;2.92;;;;;;;;;;1026575;28;20146;-24
2023/10/31 02:25:18;;;;;;;1.20;0.52;;;;;;;;;;1029067;28;20081;-24
2023/10/31 02:25:49;;;;;;;9.35;0.90;;;;;;;;;;1035628;28;20564;-24
2023/10/31 02:26:20;;;;;;;1.55;1.38;;;;;;;;;;1032370;28;20030;-25
2023/10/31 02:26:51;;;;;;;1.95;1.60;;;;;;;;;;1032500;28;20101;-24
2023/10/31 02:27:22;;;;;;;4.38;0.95;;;;;;;;;;1028895;28;20151;-23
2023/10/31 02:27:53;;;;;;;3.10;1.92;;;;;;;;;;1024523;28;20611;-23
2023/10/31 02:28:27;;;;;;;1.23;1.15;;;;;;;;;;1023120;28;20065;-24
2023/10/31 02:28:58;;;;;;;3.85;3.55;;;;;;;;;;1026589;28;20034;-22
2023/10/31 02:29:33;;;;;;;1.10;1.10;;;;;;;;;;1026330;28;20034;-24
2023/10/31 02:30:06;;;;;;;1.50;1.45;;;;;;;;;;1028390;28;20061;-23
2023/10/31 02:30:37;;;;;;;1.92;1.77;;;;;;;;;;1025074;28;20027;-24
2023/10/31 02:31:07;;;;;;;1.15;1.02;;;;;;;;;;1024618;28;20640;-24
2023/10/31 02:31:38;;;;;;;2.92;1.92;;;;;;;;;;1024424;28;20113;-23
2023/10/31 02:32:12;;;;;;;0.88;0.88;;;;;;;;;;1024175;28;20125;-24
2023/10/31 02:32:45;;;;;;;1.13;1.02;;;;;;;;;;1027940;28;20117;-22
2023/10/31 02:33:18;;;;;;;2.47;2.28;;;;;;;;;;1028399;28;20575;-23
2023/10/31 02:33:50;;;;;;;0.70;0.70;;;;;;;;;;1025489;28;20065;-21
2023/10/31 02:34:21;;;;;;;2.47;2.28;;;;;;;;;;1026261;28;20046;-23
2023/10/31 02:34:52;;;;;;;2.55;1.08;;;;;;;;;;1023895;28;20130;-23
2023/10/31 02:35:23;;;;;;;1.02;1.00;;;;;;;;;;1022699;28;20038;-23
2023/10/31 02:35:54;;;;;;;1.48;1.38;;;;;;;;;;1024795;28;20077;-22
2023/10/31 02:36:26;;;;;;;3.17;2.88;;;;;;;;;;1022804;28;20023;-25
2023/10/31 02:36:58;;;;;;;9.48;3.42;;;;;;;;;;1024515;28;20033;-22
2023/10/31 02:37:29;;;;;;;0.47;0.47;;;;;;;;;;1029562;28;20384;-23
2023/10/31 02:38:02;;;;;;;2.08;1.98;;;;;;;;;;1031549;28;20342;-22
2023/10/31 02:38:34;;;;;;;0.85;0.80;;;;;;;;;;1029786;28;20513;-21
2023/10/31 02:39:08;;;;;;;0.82;0.63;;;;;;;;;;1028190;28;20077;-22
2023/10/31 02:39:39;;;;;;;0.50;0.50;;;;;;;;;;1023303;28;20605;-23
2023/10/31 02:40:10;;;;;;;1.45;1.35;;;;;;;;;;1023546;28;20034;-22
2023/10/31 02:40:41;;;;;;;0.98;0.63;;;;;;;;;;1025048;28;20045;-23
2023/10/31 02:41:15;;;;;;;0.47;0.47;;;;;;;;;;1025156;28;20037;-24
2023/10/31 02:41:50;;;;;;;1.20;0.47;;;;;;;;;;1029249;28;20560;-24
2023/10/31 02:42:30;;;;;;;2.83;2.53;;;;;;;;;;1031488;28;20639;-24
2023/10/31 02:43:03;;;;;;;2.60;2.38;;;;;;;;;;1029520;28;20033;-21
2023/10/31 02:43:36;;;;;;;0.43;0.43;;;;;;;;;;1031180;28;20125;-22
2023/10/31 02:44:08;;;;;;;0.10;0.10;;;;;;;;;;1025573;28;20077;-21
2023/10/31 02:44:41;;;;;;;1.48;1.38;;;;;;;;;;1019572;28;20038;-23
2023/10/31 02:45:15;;;;;;;0.30;0.30;;;;;;;;;;1018675;28;20043;-23
2023/10/31 02:45:46;;;;;;;0.80;0.80;;;;;;;;;;1026803;28;20427;-22
2023/10/31 02:46:19;;;;;;;0.05;0.05;;;;;;;;;;1029119;28;20171;-22
2023/10/31 02:46:52;;;;;;;0.45;0.45;;;;;;;;;;1033615;28;20524;-23
2023/10/31 02:47:24;;;;;;;2.03;1.52;;;;;;;;;;1027257;28;20088;-21
2023/10/31 02:47:56;;;;;;;0.10;0.10;;;;;;;;;;1026076;28;20057;-22
2023/10/31 02:48:31;;;;;;;2.38;1.95;;;;;;;;;;1027663;28;20456;-21
2023/10/31 02:49:05;;;;;;;0.40;0.40;;;;;;;;;;1034248;28;20026;-23
2023/10/31 02:49:37;;;;;;;0.73;0.68;;;;;;;;;;1032625;28;20026;-21
2023/10/31 02:50:10;;;;;;;3.92;2.05;;;;;;;;;;1028528;28;20025;-24
2023/10/31 02:50:41;;;;;;;2.85;1.15;;;;;;;;;;1022498;28;20037;-21
2023/10/31 02:51:13;;;;;;;5.32;1.95;;;;;;;;;;1022466;28;20042;-23
2023/10/31 02:51:47;;;;;;;0.10;0.10;;;;;;;;;;1024912;28;20340;-23
2023/10/31 02:52:20;;;;;;;2.92;1.95;;;;;;;;;;1025961;28;20112;-22
2023/10/31 02:52:56;;;;;;;0.20;0.20;;;;;;;;;;1027142;28;20433;-22
2023/10/31 02:53:29;;;;;;;0.28;0.28;;;;;;;;;;1021277;28;20323;-23
2023/10/31 02:54:05;;;;;;;0.10;0.10;;;;;;;;;;1020781;28;20118;-23
2023/10/31 02:54:54;;;;;;;0.63;0.50;;;;;;;;;;1024790;28;20027;-25
2023/10/31 02:55:27;;;;;;;1.00;1.00;;;;;;;;;;1024453;28;20031;-24
2023/10/31 02:56:17;;;;;;;22.80;7.25;;;;;;;;;;1028189;28;20042;-24
2023/10/31 02:57:02;;;;;;;0.13;0.13;;;;;;;;;;1032085;28;20137;-22
2023/10/31 02:58:20;;;;;;;0.15;0.15;;;;;;;;;;1032739;28;20443;-23
2023/10/31 02:58:54;;;;;;;0.20;0.20;;;;;;;;;;1021162;28;20469;-23
2023/10/31 07:59:10;;;;;;;0.10;0.10;;;;;;;;;;1029193;28;20038;-25
2023/10/31 07:59:42;;;;;;;0.10;0.10;;;;;;;;;;1029942;28;20104;-23
2023/10/31 08:00:15;;;;;;;0.38;0.38;;;;;;;;;;1028528;28;20316;-22
2023/10/31 08:00:49;;;;;;;1.35;1.20;;;;;;;;;;1029542;28;20026;-25
2023/10/31 08:01:23;;;;;;;0.10;0.10;;;;;;;;;;1022994;28;20493;-21
2023/10/31 08:01:54;;;;;;;1.15;1.05;;;;;;;;;;1026215;28;20551;-24
2023/10/31 08:02:26;;;;;;;5.13;0.77;;;;;;;;;;1029181;28;20445;-22
2023/10/31 08:02:58;;;;;;;0.00;0.00;;;;;;;;;;1029286;28;20180;-23
2023/10/31 08:03:28;;;;;;;5.07;1.40;;;;;;;;;;1030185;28;20038;-25
2023/10/31 08:03:59;;;;;;;1.50;0.65;;;;;;;;;;1030178;28;20018;-23
2023/10/31 08:04:31;;;;;;;1.80;1.42;;;;;;;;;;1029636;28;20061;-24
2023/10/31 08:05:02;;;;;;;1.77;1.67;;;;;;;;;;1029841;28;20319;-25
2023/10/31 08:05:33;;;;;;;0.40;0.40;;;;;;;;;;1028691;28;20026;-23
2023/10/31 08:06:07;;;;;;;0.95;0.82;;;;;;;;;;1032135;28;20022;-24
2023/10/31 08:06:39;;;;;;;0.47;0.47;;;;;;;;;;1031462;28;20610;-24
2023/10/31 08:07:12;;;;;;;0.65;0.20;;;;;;;;;;1030372;28;20117;-23
2023/10/31 08:07:44;;;;;;;1.25;0.95;;;;;;;;;;1036454;28;20124;-22
2023/10/31 08:08:14;;;;;;;0.22;0.22;;;;;;;;;;1038042;28;20132;-24
2023/10/31 08:08:45;;;;;;;2.55;1.02;;;;;;;;;;1037735;28;20350;-23
2023/10/31 08:09:17;;;;;;;0.00;0.00;;;;;;;;;;1036765;28;20059;-25